sensor_id;sensor_type;location;lat;lon;timestamp;pressure;altitude;pressure_sealevel;temperature;humidity
48882;BME280;57063;51.406;-2.402;2022-12-18T00:01:34;100858.63;;;-5.00;100.00
48882;BME280;57063;51.406;-2.402;2022-12-18T00:04:05;100861.66;;;-4.59;100.00
48882;BME280;57063;51.406;-2.402;2022-12-18T00:06:36;100892.94;;;-4.40;100.00
48882;BME280;57063;51.406;-2.402;2022-12-18T00:09:04;100862.81;;;-4.29;100.00
48882;BME280;57063;51.406;-2.402;2022-12-18T00:11:31;100859.00;;;-3.87;100.00
48882;BME280;57063;51.406;-2.402;2022-12-18T00:14:00;100856.75;;;-3.50;100.00
48882;BME280;57063;51.406;-2.402;2022-12-18T00:16:28;100861.94;;;-3.27;100.00
48882;BME280;57063;51.406;-2.402;2022-12-18T00:19:01;100841.81;;;-3.15;100.00
48882;BME280;57063;51.406;-2.402;2022-12-18T00:21:28;100838.56;;;-2.86;100.00
48882;BME280;57063;51.406;-2.402;2022-12-18T00:23:58;100831.06;;;-2.72;100.00
48882;BME280;57063;51.406;-2.402;2022-12-18T00:26:31;100830.16;;;-2.88;100.00
48882;BME280;57063;51.406;-2.402;2022-12-18T00:29:07;100828.53;;;-2.71;100.00
48882;BME280;57063;51.406;-2.402;2022-12-18T00:31:35;100833.59;;;-2.72;100.00
48882;BME280;57063;51.406;-2.402;2022-12-18T00:34:04;100831.00;;;-2.89;100.00
48882;BME280;57063;51.406;-2.402;2022-12-18T00:36:33;100829.25;;;-3.03;100.00
48882;BME280;57063;51.406;-2.402;2022-12-18T00:39:03;100832.59;;;-3.07;100.00
48882;BME280;57063;51.406;-2.402;2022-12-18T00:41:29;100847.78;;;-3.02;100.00
48882;BME280;57063;51.406;-2.402;2022-12-18T00:44:15;100833.56;;;-2.80;100.00
48882;BME280;57063;51.406;-2.402;2022-12-18T00:46:43;100811.63;;;-2.92;100.00
48882;BME280;57063;51.406;-2.402;2022-12-18T00:49:09;100803.19;;;-2.98;100.00
48882;BME280;57063;51.406;-2.402;2022-12-18T00:51:35;100791.44;;;-2.86;100.00
48882;BME280;57063;51.406;-2.402;2022-12-18T00:54:01;100809.06;;;-2.99;100.00
48882;BME280;57063;51.406;-2.402;2022-12-18T00:56:28;100796.34;;;-3.24;100.00
48882;BME280;57063;51.406;-2.402;2022-12-18T00:58:54;100801.50;;;-2.90;100.00
48882;BME280;57063;51.406;-2.402;2022-12-18T01:01:22;100804.88;;;-2.91;100.00
48882;BME280;57063;51.406;-2.402;2022-12-18T01:03:48;100773.72;;;-2.96;100.00
48882;BME280;57063;51.406;-2.402;2022-12-18T01:06:15;100784.75;;;-2.70;100.00
48882;BME280;57063;51.406;-2.402;2022-12-18T01:08:44;100772.97;;;-2.49;100.00
48882;BME280;57063;51.406;-2.402;2022-12-18T01:11:12;100773.00;;;-2.48;100.00
48882;BME280;57063;51.406;-2.402;2022-12-18T01:13:39;100807.56;;;-2.33;100.00
48882;BME280;57063;51.406;-2.402;2022-12-18T01:16:05;100778.03;;;-2.49;100.00
48882;BME280;57063;51.406;-2.402;2022-12-18T01:18:31;100785.63;;;-2.45;100.00
48882;BME280;57063;51.406;-2.402;2022-12-18T01:20:57;100794.91;;;-2.39;100.00
48882;BME280;57063;51.406;-2.402;2022-12-18T01:23:23;100787.34;;;-2.16;100.00
48882;BME280;57063;51.406;-2.402;2022-12-18T01:25:49;100796.63;;;-2.29;100.00
48882;BME280;57063;51.406;-2.402;2022-12-18T01:28:15;100795.72;;;-2.52;100.00
48882;BME280;57063;51.406;-2.402;2022-12-18T01:30:41;100796.59;;;-2.53;100.00
48882;BME280;57063;51.406;-2.402;2022-12-18T01:33:10;100789.84;;;-2.58;100.00
48882;BME280;57063;51.406;-2.402;2022-12-18T01:35:43;100791.50;;;-2.55;100.00
48882;BME280;57063;51.406;-2.402;2022-12-18T01:38:09;100804.19;;;-2.32;100.00
48882;BME280;57063;51.406;-2.402;2022-12-18T01:40:35;100789.03;;;-1.92;100.00
48882;BME280;57063;51.406;-2.402;2022-12-18T01:43:02;100790.72;;;-2.03;100.00
48882;BME280;57063;51.406;-2.402;2022-12-18T01:45:30;100798.31;;;-2.16;100.00
48882;BME280;57063;51.406;-2.402;2022-12-18T01:48:01;100810.97;;;-2.05;100.00
48882;BME280;57063;51.406;-2.402;2022-12-18T01:50:39;100795.75;;;-2.12;100.00
48882;BME280;57063;51.406;-2.402;2022-12-18T01:53:17;100795.78;;;-2.11;100.00
48882;BME280;57063;51.406;-2.402;2022-12-18T01:55:52;100784.81;;;-1.90;100.00
48882;BME280;57063;51.406;-2.402;2022-12-18T01:58:20;100788.19;;;-1.92;100.00
48882;BME280;57063;51.406;-2.402;2022-12-18T02:00:48;100783.97;;;-1.94;100.00
48882;BME280;57063;51.406;-2.402;2022-12-18T02:03:14;100777.22;;;-2.04;100.00
48882;BME280;57063;51.406;-2.402;2022-12-18T02:11:31;100795.75;;;-1.76;100.00
48882;BME280;57063;51.406;-2.402;2022-12-18T02:14:50;100753.59;;;-1.81;100.00
48882;BME280;57063;51.406;-2.402;2022-12-18T02:17:47;100740.94;;;-1.67;100.00
48882;BME280;57063;51.406;-2.402;2022-12-18T02:21:12;100750.19;;;-1.69;100.00
48882;BME280;57063;51.406;-2.402;2022-12-18T02:28:49;100756.03;;;-1.49;100.00
48882;BME280;57063;51.406;-2.402;2022-12-18T02:31:23;100756.91;;;-1.44;100.00
48882;BME280;57063;51.406;-2.402;2022-12-18T02:33:54;100754.34;;;-1.41;100.00
48882;BME280;57063;51.406;-2.402;2022-12-18T02:36:24;100751.81;;;-1.47;100.00
48882;BME280;57063;51.406;-2.402;2022-12-18T02:38:54;100757.75;;;-1.48;100.00
48882;BME280;57063;51.406;-2.402;2022-12-18T02:41:22;100784.69;;;-1.25;100.00
48882;BME280;57063;51.406;-2.402;2022-12-18T02:43:55;100751.78;;;-1.39;100.00
48882;BME280;57063;51.406;-2.402;2022-12-18T02:46:43;100742.44;;;-1.19;100.00
48882;BME280;57063;51.406;-2.402;2022-12-18T03:01:00;100749.03;;;-0.89;100.00
48882;BME280;57063;51.406;-2.402;2022-12-18T03:03:34;100735.56;;;-0.92;100.00
48882;BME280;57063;51.406;-2.402;2022-12-18T03:06:12;100730.53;;;-0.97;100.00
48882;BME280;57063;51.406;-2.402;2022-12-18T03:08:44;100734.72;;;-0.90;100.00
48882;BME280;57063;51.406;-2.402;2022-12-18T03:11:13;100729.63;;;-0.88;100.00
48882;BME280;57063;51.406;-2.402;2022-12-18T03:13:52;100762.47;;;-0.68;100.00
48882;BME280;57063;51.406;-2.402;2022-12-18T03:16:25;100758.22;;;-0.63;100.00
48882;BME280;57063;51.406;-2.402;2022-12-18T03:18:57;100732.16;;;-0.87;100.00
48882;BME280;57063;51.406;-2.402;2022-12-18T03:21:28;100769.16;;;-0.58;100.00
48882;BME280;57063;51.406;-2.402;2022-12-18T03:23:55;100730.38;;;-0.72;100.00
48882;BME280;57063;51.406;-2.402;2022-12-18T03:26:24;100729.50;;;-0.68;100.00
48882;BME280;57063;51.406;-2.402;2022-12-18T03:28:59;100714.28;;;-0.67;100.00
48882;BME280;57063;51.406;-2.402;2022-12-18T03:31:29;100728.63;;;-0.64;100.00
48882;BME280;57063;51.406;-2.402;2022-12-18T03:34:03;100717.63;;;-0.61;100.00
48882;BME280;57063;51.406;-2.402;2022-12-18T03:36:31;100722.56;;;-0.43;100.00
48882;BME280;57063;51.406;-2.402;2022-12-18T03:38:58;100709.91;;;-0.48;100.00
48882;BME280;57063;51.406;-2.402;2022-12-18T03:44:35;100694.72;;;-0.48;100.00
48882;BME280;57063;51.406;-2.402;2022-12-18T03:47:16;100693.84;;;-0.45;100.00
48882;BME280;57063;51.406;-2.402;2022-12-18T03:52:40;100696.38;;;-0.47;100.00
48882;BME280;57063;51.406;-2.402;2022-12-18T03:55:12;100699.78;;;-0.48;100.00
48882;BME280;57063;51.406;-2.402;2022-12-18T03:57:38;100702.22;;;-0.37;100.00
48882;BME280;57063;51.406;-2.402;2022-12-18T04:00:12;100688.78;;;-0.47;100.00
48882;BME280;57063;51.406;-2.402;2022-12-18T04:02:43;100685.38;;;-0.41;100.00
48882;BME280;57063;51.406;-2.402;2022-12-18T04:05:10;100692.84;;;-0.26;100.00
48882;BME280;57063;51.406;-2.402;2022-12-18T04:07:38;100649.06;;;-0.46;100.00
48882;BME280;57063;51.406;-2.402;2022-12-18T04:10:06;100644.00;;;-0.48;100.00
48882;BME280;57063;51.406;-2.402;2022-12-18T04:12:32;100628.72;;;-0.41;100.00
48882;BME280;57063;51.406;-2.402;2022-12-18T04:14:59;100628.75;;;-0.45;100.00
48882;BME280;57063;51.406;-2.402;2022-12-18T04:17:25;100615.25;;;-0.44;100.00
48882;BME280;57063;51.406;-2.402;2022-12-18T04:19:50;100624.44;;;-0.33;100.00
48882;BME280;57063;51.406;-2.402;2022-12-18T04:22:16;100605.00;;;-0.37;100.00
48882;BME280;57063;51.406;-2.402;2022-12-18T04:24:41;100617.63;;;-0.28;100.00
48882;BME280;57063;51.406;-2.402;2022-12-18T04:27:07;100605.09;;;-0.45;100.00
48882;BME280;57063;51.406;-2.402;2022-12-18T04:29:33;100596.56;;;-0.39;100.00
48882;BME280;57063;51.406;-2.402;2022-12-18T04:31:59;100595.72;;;-0.37;100.00
48882;BME280;57063;51.406;-2.402;2022-12-18T04:34:24;100588.09;;;-0.37;100.00
48882;BME280;57063;51.406;-2.402;2022-12-18T04:36:50;100584.81;;;-0.45;100.00
48882;BME280;57063;51.406;-2.402;2022-12-18T04:39:16;100600.81;;;-0.38;100.00
48882;BME280;57063;51.406;-2.402;2022-12-18T04:41:42;100593.28;;;-0.49;100.00
48882;BME280;57063;51.406;-2.402;2022-12-18T04:44:07;100590.75;;;-0.46;100.00
48882;BME280;57063;51.406;-2.402;2022-12-18T04:46:37;100606.59;;;-0.24;100.00
48882;BME280;57063;51.406;-2.402;2022-12-18T04:49:03;100564.53;;;-0.44;100.00
48882;BME280;57063;51.406;-2.402;2022-12-18T04:51:29;100606.53;;;-0.19;100.00
48882;BME280;57063;51.406;-2.402;2022-12-18T04:53:54;100572.19;;;-0.50;100.00
48882;BME280;57063;51.406;-2.402;2022-12-18T04:56:20;100578.91;;;-0.46;100.00
48882;BME280;57063;51.406;-2.402;2022-12-18T04:58:46;100571.25;;;-0.43;100.00
48882;BME280;57063;51.406;-2.402;2022-12-18T05:01:13;100570.47;;;-0.49;100.00
48882;BME280;57063;51.406;-2.402;2022-12-18T05:03:43;100570.44;;;-0.43;100.00
48882;BME280;57063;51.406;-2.402;2022-12-18T05:06:30;100561.16;;;-0.46;100.00
48882;BME280;57063;51.406;-2.402;2022-12-18T05:33:44;100471.03;;;-0.02;100.00
48882;BME280;57063;51.406;-2.402;2022-12-18T05:36:35;100469.38;;;-0.06;100.00
48882;BME280;57063;51.406;-2.402;2022-12-18T05:39:21;100506.31;;;0.14;100.00
48882;BME280;57063;51.406;-2.402;2022-12-18T05:47:49;100465.84;;;0.05;100.00
48882;BME280;57063;51.406;-2.402;2022-12-18T05:50:43;100487.63;;;0.21;100.00
48882;BME280;57063;51.406;-2.402;2022-12-18T05:53:12;100469.06;;;0.17;100.00
48882;BME280;57063;51.406;-2.402;2022-12-18T05:55:40;100460.72;;;0.09;100.00
48882;BME280;57063;51.406;-2.402;2022-12-18T05:58:08;100488.34;;;0.29;100.00
48882;BME280;57063;51.406;-2.402;2022-12-18T06:00:46;100450.59;;;0.08;100.00
48882;BME280;57063;51.406;-2.402;2022-12-18T06:03:13;100438.75;;;0.08;100.00
48882;BME280;57063;51.406;-2.402;2022-12-18T06:05:42;100437.91;;;0.06;100.00
48882;BME280;57063;51.406;-2.402;2022-12-18T06:08:10;100454.75;;;0.13;100.00
48882;BME280;57063;51.406;-2.402;2022-12-18T06:10:36;100436.84;;;0.21;100.00
48882;BME280;57063;51.406;-2.402;2022-12-18T06:13:02;100432.66;;;0.18;100.00
48882;BME280;57063;51.406;-2.402;2022-12-18T06:15:29;100446.88;;;0.30;100.00
48882;BME280;57063;51.406;-2.402;2022-12-18T06:17:55;100438.50;;;0.25;100.00
48882;BME280;57063;51.406;-2.402;2022-12-18T06:20:21;100456.16;;;0.33;100.00
48882;BME280;57063;51.406;-2.402;2022-12-18T06:22:47;100455.22;;;0.38;99.96
48882;BME280;57063;51.406;-2.402;2022-12-18T06:25:13;100440.81;;;0.39;100.00
48882;BME280;57063;51.406;-2.402;2022-12-18T06:27:39;100434.81;;;0.43;99.81
48882;BME280;57063;51.406;-2.402;2022-12-18T06:30:05;100455.72;;;0.60;100.00
48882;BME280;57063;51.406;-2.402;2022-12-18T06:32:30;100443.84;;;0.61;98.97
48882;BME280;57063;51.406;-2.402;2022-12-18T06:34:56;100437.91;;;0.62;98.67
48882;BME280;57063;51.406;-2.402;2022-12-18T06:37:22;100444.63;;;0.66;98.05
48882;BME280;57063;51.406;-2.402;2022-12-18T06:39:54;100443.94;;;0.56;98.88
48882;BME280;57063;51.406;-2.402;2022-12-18T06:42:21;100441.28;;;0.61;98.69
48882;BME280;57063;51.406;-2.402;2022-12-18T06:44:47;100455.75;;;0.57;99.09
48882;BME280;57063;51.406;-2.402;2022-12-18T06:47:13;100466.53;;;0.73;97.56
48882;BME280;57063;51.406;-2.402;2022-12-18T06:49:38;100485.28;;;0.66;98.30
48882;BME280;57063;51.406;-2.402;2022-12-18T06:52:04;100485.16;;;0.71;97.40
48882;BME280;57063;51.406;-2.402;2022-12-18T06:54:31;100475.06;;;0.69;97.06
48882;BME280;57063;51.406;-2.402;2022-12-18T06:56:58;100488.50;;;0.74;97.46
48882;BME280;57063;51.406;-2.402;2022-12-18T06:59:24;100495.38;;;0.69;97.48
48882;BME280;57063;51.406;-2.402;2022-12-18T07:01:49;100488.78;;;0.59;98.47
48882;BME280;57063;51.406;-2.402;2022-12-18T07:04:15;100497.00;;;0.73;98.29
48882;BME280;57063;51.406;-2.402;2022-12-18T07:06:40;100489.41;;;0.70;98.05
48882;BME280;57063;51.406;-2.402;2022-12-18T07:09:06;100487.81;;;0.64;98.50
48882;BME280;57063;51.406;-2.402;2022-12-18T07:11:35;100481.06;;;0.63;98.10
48882;BME280;57063;51.406;-2.402;2022-12-18T07:14:00;100470.84;;;0.67;98.14
48882;BME280;57063;51.406;-2.402;2022-12-18T07:16:26;100459.69;;;0.77;97.40
48882;BME280;57063;51.406;-2.402;2022-12-18T07:18:56;100457.03;;;0.83;96.57
48882;BME280;57063;51.406;-2.402;2022-12-18T07:21:23;100451.16;;;0.79;96.19
48882;BME280;57063;51.406;-2.402;2022-12-18T07:23:49;100446.75;;;0.89;95.72
48882;BME280;57063;51.406;-2.402;2022-12-18T07:26:18;100471.13;;;1.01;95.75
48882;BME280;57063;51.406;-2.402;2022-12-18T07:28:43;100461.06;;;0.95;95.98
48882;BME280;57063;51.406;-2.402;2022-12-18T07:31:11;100469.63;;;0.89;96.13
48882;BME280;57063;51.406;-2.402;2022-12-18T07:33:37;100478.91;;;0.92;96.11
48882;BME280;57063;51.406;-2.402;2022-12-18T07:36:05;100461.84;;;0.98;95.06
48882;BME280;57063;51.406;-2.402;2022-12-18T07:38:32;100450.72;;;1.04;94.80
48882;BME280;57063;51.406;-2.402;2022-12-18T07:41:02;100465.09;;;1.06;94.46
48882;BME280;57063;51.406;-2.402;2022-12-18T07:43:27;100457.59;;;0.99;95.07
48882;BME280;57063;51.406;-2.402;2022-12-18T07:45:53;100483.72;;;1.07;95.36
48882;BME280;57063;51.406;-2.402;2022-12-18T07:48:18;100461.06;;;0.95;95.95
48882;BME280;57063;51.406;-2.402;2022-12-18T07:50:44;100463.66;;;0.92;96.63
48882;BME280;57063;51.406;-2.402;2022-12-18T07:53:09;100441.66;;;0.91;96.54
48882;BME280;57063;51.406;-2.402;2022-12-18T07:55:35;100447.59;;;0.90;96.17
48882;BME280;57063;51.406;-2.402;2022-12-18T07:58:02;100461.94;;;0.92;95.85
48882;BME280;57063;51.406;-2.402;2022-12-18T08:00:28;100463.66;;;0.93;96.55
48882;BME280;57063;51.406;-2.402;2022-12-18T08:02:53;100477.94;;;0.99;97.15
48882;BME280;57063;51.406;-2.402;2022-12-18T08:05:22;100478.06;;;0.93;97.43
48882;BME280;57063;51.406;-2.402;2022-12-18T08:07:48;100475.34;;;1.02;96.82
48882;BME280;57063;51.406;-2.402;2022-12-18T08:10:14;100472.97;;;0.93;97.19
48882;BME280;57063;51.406;-2.402;2022-12-18T08:12:39;100493.84;;;1.10;97.20
48882;BME280;57063;51.406;-2.402;2022-12-18T08:15:06;100475.50;;;0.93;97.61
48882;BME280;57063;51.406;-2.402;2022-12-18T08:17:32;100467.97;;;0.88;98.07
48882;BME280;57063;51.406;-2.402;2022-12-18T08:20:01;100475.34;;;1.02;98.67
48882;BME280;57063;51.406;-2.402;2022-12-18T08:22:26;100455.19;;;0.93;98.87
48882;BME280;57063;51.406;-2.402;2022-12-18T08:24:52;100434.06;;;0.89;99.46
48882;BME280;57063;51.406;-2.402;2022-12-18T08:27:18;100429.94;;;0.82;100.00
48882;BME280;57063;51.406;-2.402;2022-12-18T08:29:44;100433.22;;;0.89;100.00
48882;BME280;57063;51.406;-2.402;2022-12-18T08:32:10;100429.00;;;0.88;100.00
48882;BME280;57063;51.406;-2.402;2022-12-18T08:34:38;100427.53;;;0.74;100.00
48882;BME280;57063;51.406;-2.402;2022-12-18T08:37:26;100416.50;;;0.75;100.00
48882;BME280;57063;51.406;-2.402;2022-12-18T10:19:35;100356.59;;;1.10;100.00
48882;BME280;57063;51.406;-2.402;2022-12-18T11:52:41;100074.78;;;1.63;100.00
48882;BME280;57063;51.406;-2.402;2022-12-18T11:57:55;100094.56;;;1.85;100.00
48882;BME280;57063;51.406;-2.402;2022-12-18T12:00:29;100069.53;;;1.69;100.00
48882;BME280;57063;51.406;-2.402;2022-12-18T12:03:07;100081.84;;;1.85;100.00
48882;BME280;57063;51.406;-2.402;2022-12-18T12:06:20;100057.19;;;1.87;100.00
48882;BME280;57063;51.406;-2.402;2022-12-18T12:21:41;99989.03;;;1.98;100.00
48882;BME280;57063;51.406;-2.402;2022-12-18T15:36:45;62188.47;;;-143.29;100.00
48882;BME280;57063;51.406;-2.402;2022-12-18T15:39:12;62188.47;;;-143.29;100.00
48882;BME280;57063;51.406;-2.402;2022-12-18T15:41:38;62188.47;;;-143.29;100.00
48882;BME280;57063;51.406;-2.402;2022-12-18T15:44:23;62188.47;;;-143.29;100.00
48882;BME280;57063;51.406;-2.402;2022-12-18T15:46:56;62188.47;;;-143.29;100.00
48882;BME280;57063;51.406;-2.402;2022-12-18T15:49:30;62188.47;;;-143.29;100.00
48882;BME280;57063;51.406;-2.402;2022-12-18T15:51:59;62188.47;;;-143.29;100.00
48882;BME280;57063;51.406;-2.402;2022-12-18T15:54:26;62188.47;;;-143.29;100.00
48882;BME280;57063;51.406;-2.402;2022-12-18T15:57:11;62188.47;;;-143.29;100.00
48882;BME280;57063;51.406;-2.402;2022-12-18T15:59:49;62188.47;;;-143.29;100.00
48882;BME280;57063;51.406;-2.402;2022-12-18T16:02:20;62188.47;;;-143.29;100.00
48882;BME280;57063;51.406;-2.402;2022-12-18T16:04:48;62188.47;;;-143.29;100.00
48882;BME280;57063;51.406;-2.402;2022-12-18T16:07:13;62188.47;;;-143.29;100.00
48882;BME280;57063;51.406;-2.402;2022-12-18T16:09:39;62188.47;;;-143.29;100.00
48882;BME280;57063;51.406;-2.402;2022-12-18T16:12:06;62188.47;;;-143.29;100.00
48882;BME280;57063;51.406;-2.402;2022-12-18T16:14:35;62188.47;;;-143.29;100.00
48882;BME280;57063;51.406;-2.402;2022-12-18T16:17:03;62188.47;;;-143.29;100.00
48882;BME280;57063;51.406;-2.402;2022-12-18T16:19:29;62188.47;;;-143.29;100.00
48882;BME280;57063;51.406;-2.402;2022-12-18T16:21:57;62188.47;;;-143.29;100.00
48882;BME280;57063;51.406;-2.402;2022-12-18T16:24:25;62188.47;;;-143.29;100.00
48882;BME280;57063;51.406;-2.402;2022-12-18T16:26:51;62188.47;;;-143.29;100.00
48882;BME280;57063;51.406;-2.402;2022-12-18T16:29:20;62188.47;;;-143.29;100.00
48882;BME280;57063;51.406;-2.402;2022-12-18T16:31:50;62188.47;;;-143.29;100.00
48882;BME280;57063;51.406;-2.402;2022-12-18T16:34:24;62188.47;;;-143.29;100.00
48882;BME280;57063;51.406;-2.402;2022-12-18T16:36:54;62188.47;;;-143.29;100.00
48882;BME280;57063;51.406;-2.402;2022-12-18T16:39:20;62188.47;;;-143.29;100.00
48882;BME280;57063;51.406;-2.402;2022-12-18T16:41:46;62188.47;;;-143.29;100.00
48882;BME280;57063;51.406;-2.402;2022-12-18T16:44:12;62188.47;;;-143.29;100.00
48882;BME280;57063;51.406;-2.402;2022-12-18T16:46:39;62188.47;;;-143.29;100.00
48882;BME280;57063;51.406;-2.402;2022-12-18T16:49:08;62188.47;;;-143.29;100.00
48882;BME280;57063;51.406;-2.402;2022-12-18T16:51:34;62188.47;;;-143.29;100.00
48882;BME280;57063;51.406;-2.402;2022-12-18T16:54:00;62188.47;;;-143.29;100.00
48882;BME280;57063;51.406;-2.402;2022-12-18T16:56:25;62188.47;;;-143.29;100.00
48882;BME280;57063;51.406;-2.402;2022-12-18T16:58:52;62188.47;;;-143.29;100.00
48882;BME280;57063;51.406;-2.402;2022-12-18T17:01:19;62188.47;;;-143.29;100.00
48882;BME280;57063;51.406;-2.402;2022-12-18T17:03:54;62188.47;;;-143.29;100.00
48882;BME280;57063;51.406;-2.402;2022-12-18T17:06:24;62188.47;;;-143.29;100.00
48882;BME280;57063;51.406;-2.402;2022-12-18T17:08:58;62188.47;;;-143.29;100.00
48882;BME280;57063;51.406;-2.402;2022-12-18T17:11:25;62188.47;;;-143.29;100.00
48882;BME280;57063;51.406;-2.402;2022-12-18T17:13:51;62188.47;;;-143.29;100.00
48882;BME280;57063;51.406;-2.402;2022-12-18T17:16:17;62188.47;;;-143.29;100.00
48882;BME280;57063;51.406;-2.402;2022-12-18T17:18:43;62188.47;;;-143.29;100.00
48882;BME280;57063;51.406;-2.402;2022-12-18T17:21:09;62188.47;;;-143.29;100.00
48882;BME280;57063;51.406;-2.402;2022-12-18T17:23:36;62188.47;;;-143.29;100.00
48882;BME280;57063;51.406;-2.402;2022-12-18T17:26:03;62188.47;;;-143.29;100.00
48882;BME280;57063;51.406;-2.402;2022-12-18T17:28:31;62188.47;;;-143.29;100.00
48882;BME280;57063;51.406;-2.402;2022-12-18T17:30:57;62188.47;;;-143.29;100.00
48882;BME280;57063;51.406;-2.402;2022-12-18T17:33:23;62188.47;;;-143.29;100.00
48882;BME280;57063;51.406;-2.402;2022-12-18T17:35:49;62188.47;;;-143.29;100.00
48882;BME280;57063;51.406;-2.402;2022-12-18T17:38:16;62188.47;;;-143.29;100.00
48882;BME280;57063;51.406;-2.402;2022-12-18T17:40:42;62188.47;;;-143.29;100.00
48882;BME280;57063;51.406;-2.402;2022-12-18T17:43:09;62188.47;;;-143.29;100.00
48882;BME280;57063;51.406;-2.402;2022-12-18T17:45:35;62188.47;;;-143.29;100.00
48882;BME280;57063;51.406;-2.402;2022-12-18T17:48:03;62188.47;;;-143.29;100.00
48882;BME280;57063;51.406;-2.402;2022-12-18T17:50:28;62188.47;;;-143.29;100.00
48882;BME280;57063;51.406;-2.402;2022-12-18T17:52:55;62188.47;;;-143.29;100.00
48882;BME280;57063;51.406;-2.402;2022-12-18T17:55:21;62188.47;;;-143.29;100.00
48882;BME280;57063;51.406;-2.402;2022-12-18T17:57:47;62188.47;;;-143.29;100.00
48882;BME280;57063;51.406;-2.402;2022-12-18T18:00:13;62188.47;;;-143.29;100.00
48882;BME280;57063;51.406;-2.402;2022-12-18T18:02:39;62188.47;;;-143.29;100.00
48882;BME280;57063;51.406;-2.402;2022-12-18T18:05:05;62188.47;;;-143.29;100.00
48882;BME280;57063;51.406;-2.402;2022-12-18T18:07:40;62188.47;;;-143.29;100.00
48882;BME280;57063;51.406;-2.402;2022-12-18T18:10:06;62188.47;;;-143.29;100.00
48882;BME280;57063;51.406;-2.402;2022-12-18T18:12:32;62188.47;;;-143.29;100.00
48882;BME280;57063;51.406;-2.402;2022-12-18T18:15:16;62188.47;;;-143.29;100.00
48882;BME280;57063;51.406;-2.402;2022-12-18T18:17:46;62188.47;;;-143.29;100.00
48882;BME280;57063;51.406;-2.402;2022-12-18T18:20:20;62188.47;;;-143.29;100.00
48882;BME280;57063;51.406;-2.402;2022-12-18T18:22:55;62188.47;;;-143.29;100.00
48882;BME280;57063;51.406;-2.402;2022-12-18T18:25:23;62188.47;;;-143.29;100.00
48882;BME280;57063;51.406;-2.402;2022-12-18T18:27:52;62188.47;;;-143.29;100.00
48882;BME280;57063;51.406;-2.402;2022-12-18T18:30:23;62188.47;;;-143.29;100.00
48882;BME280;57063;51.406;-2.402;2022-12-18T18:32:48;62188.47;;;-143.29;100.00
48882;BME280;57063;51.406;-2.402;2022-12-18T18:35:19;62188.47;;;-143.29;100.00
48882;BME280;57063;51.406;-2.402;2022-12-18T18:38:05;62188.47;;;-143.29;100.00
48882;BME280;57063;51.406;-2.402;2022-12-18T18:41:21;62188.47;;;-143.29;100.00
48882;BME280;57063;51.406;-2.402;2022-12-18T18:44:08;62188.47;;;-143.29;100.00
48882;BME280;57063;51.406;-2.402;2022-12-18T18:49:44;62188.47;;;-143.29;100.00
48882;BME280;57063;51.406;-2.402;2022-12-18T18:52:17;62188.47;;;-143.29;100.00
48882;BME280;57063;51.406;-2.402;2022-12-18T18:54:48;62188.47;;;-143.29;100.00
48882;BME280;57063;51.406;-2.402;2022-12-18T18:57:14;62188.47;;;-143.29;100.00
48882;BME280;57063;51.406;-2.402;2022-12-18T18:59:41;62188.47;;;-143.29;100.00
48882;BME280;57063;51.406;-2.402;2022-12-18T19:02:14;62188.47;;;-143.29;100.00
48882;BME280;57063;51.406;-2.402;2022-12-18T19:04:43;62188.47;;;-143.29;100.00
48882;BME280;57063;51.406;-2.402;2022-12-18T19:07:08;62188.47;;;-143.29;100.00
48882;BME280;57063;51.406;-2.402;2022-12-18T19:09:39;62188.47;;;-143.29;100.00
48882;BME280;57063;51.406;-2.402;2022-12-18T19:12:05;62188.47;;;-143.29;100.00
48882;BME280;57063;51.406;-2.402;2022-12-18T19:14:49;62188.47;;;-143.29;100.00
48882;BME280;57063;51.406;-2.402;2022-12-18T19:17:15;62188.47;;;-143.29;100.00
48882;BME280;57063;51.406;-2.402;2022-12-18T19:19:41;62188.47;;;-143.29;100.00
48882;BME280;57063;51.406;-2.402;2022-12-18T19:22:11;62188.47;;;-143.29;100.00
48882;BME280;57063;51.406;-2.402;2022-12-18T23:52:38;62188.47;;;-143.29;100.00
48882;BME280;57063;51.406;-2.402;2022-12-18T23:55:37;62188.47;;;-143.29;100.00
48882;BME280;57063;51.406;-2.402;2022-12-18T23:58:35;62188.47;;;-143.29;100.00
